• Join FlightAware (Why Join?)
  • Login
  • US Flag 
05:09AM EDT


 

Airport Tracker/Info


-or-


 

Live Flight TrackerFlight Track Log ✈ N865JM ✈ 16-Oct-2013 ✈ KAGC - KOPF

Flight Track Log - Related Links

Times and Time Zones

All times are in EDT time to prevent confusion due to time zone crossing. See the N865JM flight status page for this flight to view local times or setup timezone preferences in your user account.

Time Position Orientation Groundspeed Altitude Reporting Facility
EDT Latitude Longitude Course Direction KTS MPH feet Rate Location/Type
09:56AM 40.3261 -79.9886 194° South 250 288 3,000  Level Cleveland Center
09:57AM 40.2578 -80.0092 193° South 249 287 5,200 2,460 Climbing Cleveland Center
09:58AM 40.1897 -80.0250 190° South 248 285 8,100 2,820 Climbing Cleveland Center
09:59AM 40.1206 -80.0425 191° South 252 290 11,100 2,700 Climbing Cleveland Center
10:00AM 40.0364 -80.0639 191° South 308 354 13,700 2,940 Climbing Cleveland Center
10:01AM 39.6666 -80.1334 194° South  Level FlightAware Approximate
10:01AM 39.9256 -80.0925 191° South 338 389 17,200  Level Cleveland Center
10:02AM 39.8339 -80.1150 191° South 336 387 20,100 2,520 Climbing Cleveland Center
10:03AM 39.7453 -80.1375 191° South 329 379 22,500 1,740 Climbing Cleveland Center
10:04AM 39.6503 -80.1611 191° South 342 394 23,800 1,140 Climbing Cleveland Center
10:05AM 39.5444 -80.1889 191° South 375 432 24,900 1,260 Climbing Cleveland Center
10:05AM 39.4606 -80.2125 192° South 387 445 26,000 1,500 Climbing Washington Center
10:06AM 39.3531 -80.2433 193° South 393 452 27,400 1,320 Climbing Washington Center
10:07AM 39.2456 -80.2686 190° South 393 452 28,800 1,200 Climbing Washington Center
10:08AM 39.1508 -80.2972 193° South 393 452 29,900 840 Climbing Washington Center
10:09AM 39.0431 -80.3303 193° South 393 452 30,500 840 Climbing Washington Center
10:10AM 38.9336 -80.3606 192° South 393 452 31,600 720 Climbing Washington Center
10:11AM 38.8217 -80.3906 192° South 398 458 32,000 180 Climbing Washington Center
10:12AM 38.6947 -80.4383 196° South 422 486 32,000  Level Washington Center
10:13AM 38.5786 -80.4731 193° South 428 493 32,000  Level Washington Center
10:14AM 38.4647 -80.5056 193° South 428 493 32,000  Level Washington Center
10:15AM 38.3633 -80.5331 192° South 423 487 32,100 540 Climbing Washington Center
10:16AM 38.2481 -80.5519 187° South 418 481 33,200 1,140 Climbing Washington Center
10:17AM 38.1325 -80.5681 186° South 418 481 34,400 1,200 Climbing Washington Center
10:18AM 38.0089 -80.5861 187° South 418 481 35,600 780 Climbing Washington Center
10:19AM 37.8933 -80.6047 187° South 413 475 36,000 180 Climbing Washington Center
10:20AM 37.7694 -80.6228 187° South 425 489 36,000  Level Washington Center
10:21AM 37.6436 -80.6381 185° South 440 506 36,000  Level Washington Center
10:24AM 37.3614 -80.6758 186° South 468 539 36,000  Level Atlanta Center
10:25AM 37.2347 -80.6944 187° South 462 532 36,000 60 Level Atlanta Center
10:26AM 37.1081 -80.7128 187° South 456 525 36,200 360 Climbing Atlanta Center
10:27AM 36.9708 -80.7289 185° South 456 525 36,800 360 Climbing Atlanta Center
10:28AM 36.8461 -80.7444 186° South 462 532 37,000 60 Climbing Atlanta Center
10:29AM 36.7358 -80.7542 184° South 462 532 37,000  Level Atlanta Center
10:30AM 36.6111 -80.7697 186° South 462 532 37,000  Level Atlanta Center
10:31AM 36.4864 -80.7853 186° South 457 526 37,000  Level Atlanta Center
10:32AM 36.3578 -80.8033 186° South 463 533 37,000  Level Atlanta Center
10:33AM 36.2331 -80.8186 186° South 457 526 37,000  Level Atlanta Center
10:34AM 36.0978 -80.8369 186° South 457 526 37,000  Level Atlanta Center
10:35AM 35.9711 -80.8522 186° South 457 526 37,000  Level Atlanta Center
10:36AM 35.8442 -80.8672 185° South 462 532 37,000 -60 Level Atlanta Center
10:37AM 35.7172 -80.8825 186° South 462 532 36,900 -360 Descending Atlanta Center
10:38AM 35.5883 -80.8978 186° South 462 532 36,300 -480 Descending Atlanta Center
10:39AM 35.4614 -80.9128 185° South 462 532 36,000 -180 Descending Atlanta Center
10:40AM 35.3472 -80.9297 187° South 462 532 36,000  Level Atlanta Center
10:41AM 35.2203 -80.9472 186° South 462 532 36,000  Level Atlanta Center
10:43AM 34.9775 -80.9797 186° South 455 524 36,000  Level Jacksonville Center
10:44AM 34.8506 -80.9878 183° South 463 533 36,000  Level Jacksonville Center
10:45AM 34.7236 -81.0083 188° South 468 539 36,000  Level Jacksonville Center
10:46AM 34.5925 -81.0211 185° South 468 539 36,000  Level Jacksonville Center
10:47AM 34.4778 -81.0364 186° South 468 539 36,000  Level Jacksonville Center
10:48AM 34.3489 -81.0567 187° South 468 539 36,000  Level Jacksonville Center
10:49AM 34.2322 -81.0667 184° South 453 521 36,000  Level Jacksonville Center
10:50AM 34.1031 -81.0844 187° South 453 521 36,000  Level Jacksonville Center
10:51AM 33.9697 -81.0972 185° South 467 537 36,000  Level Jacksonville Center
10:52AM 33.8425 -81.1097 185° South 467 537 36,000  Level Jacksonville Center
10:53AM 33.7136 -81.1297 187° South 467 537 36,000  Level Jacksonville Center
10:54AM 33.5864 -81.1447 186° South 467 537 36,000  Level Jacksonville Center
10:55AM 33.4550 -81.1600 186° South 467 537 36,000  Level Jacksonville Center
10:56AM 33.3258 -81.1747 185° South 467 537 36,000  Level Jacksonville Center
10:57AM 33.1989 -81.1897 186° South 462 532 36,000  Level Jacksonville Center
10:58AM 33.0675 -81.2044 185° South 462 532 36,000  Level Jacksonville Center
10:59AM 32.9422 -81.2069 181° South 462 532 36,000  Level Jacksonville Center
11:00AM 32.8108 -81.2044 179° South 462 532 36,000  Level Jacksonville Center
11:01AM 32.6708 -81.2022 179° South 462 532 36,000  Level Jacksonville Center
11:02AM 32.5394 -81.1972 178° South 462 532 36,000  Level Jacksonville Center
11:03AM 32.4078 -81.1922 178° South 462 532 36,000  Level Jacksonville Center
11:04AM 32.2886 -81.1869 178° South 475 547 36,000  Level Jacksonville Center
11:05AM 32.1592 -81.1844 179° South 475 547 36,000  Level Jacksonville Center
11:06AM 32.0275 -81.1822 179° South 475 547 36,000  Level Jacksonville Center
11:07AM 31.8981 -81.1772 178° South 475 547 36,000  Level Jacksonville Center
11:08AM 31.7561 -81.1725 178° South 475 547 36,000  Level Jacksonville Center
11:09AM 31.6369 -81.1697 179° South 475 547 36,000  Level Jacksonville Center
11:10AM 31.4931 -81.1653 178° South 475 547 36,000  Level Jacksonville Center
11:11AM 31.3656 -81.1603 178° South 480 552 36,000  Level Jacksonville Center
11:12AM 31.2339 -81.1603 180° South 471 542 36,000  Level Jacksonville Center
11:13AM 31.1025 -81.1578 179° South 477 549 36,000  Level Jacksonville Center
11:14AM 30.9708 -81.1553 179° South 477 549 36,000  Level Jacksonville Center
11:15AM 30.8392 -81.1481 177° South 477 549 36,000  Level Jacksonville Center
11:17AM 30.5906 -81.1456 180° South 477 549 36,000  Level Jacksonville Center
11:18AM 30.4592 -81.1406 178° South 477 549 36,000  Level Jacksonville Center
11:19AM 30.3294 -81.1358 178° South 477 549 36,000  Level Jacksonville Center
11:20AM 30.1958 -81.1333 179° South 477 549 36,000  Level Jacksonville Center
11:21AM 30.0644 -81.1308 179° South 477 549 36,000  Level Jacksonville Center
11:22AM 29.9369 -81.1286 179° South 477 549 36,000  Level Jacksonville Center
11:23AM 29.8033 -81.1261 179° South 477 549 36,000  Level Jacksonville Center
11:24AM 29.6697 -81.1239 179° South 477 549 36,000  Level Jacksonville Center
11:25AM 29.5403 -81.1214 179° South 477 549 36,000  Level Jacksonville Center
11:27AM 29.1922 -80.9994 163° South 462 532 36,000  Level Miami Center
11:28AM 29.1092 -80.9108 137° Southeast 461 531 36,000  Level Miami Center
11:29AM 28.9986 -80.8356 149° Southeast 447 514 36,000  Level Miami Center
11:30AM 28.8819 -80.7603 151° Southeast 481 554 36,000  Level Miami Center
11:31AM 28.7547 -80.6803 151° Southeast 476 548 36,000  Level Miami Center
11:32AM 28.6397 -80.6078 151° Southeast 468 539 36,000  Level Miami Center
11:33AM 28.5247 -80.5353 151° Southeast 468 539 36,000  Level Miami Center
11:34AM 28.4222 -80.4706 151° Southeast 475 547 36,000  Level Miami Center
11:35AM 28.3072 -80.3961 150° Southeast 475 547 36,000  Level Miami Center
11:36AM 28.1778 -80.3144 151° Southeast 475 547 36,000  Level Miami Center
11:37AM 28.0625 -80.2403 150° Southeast 475 547 36,000 -480 Level Miami Center
11:38AM 27.9453 -80.1686 152° Southeast 468 539 35,100 -1,500 Descending Miami Center
11:39AM 27.8403 -80.1044 152° Southeast 468 539 33,000 -2,100 Descending Miami Center
11:40AM 27.7269 -80.0333 151° Southeast 468 539 31,000 -2,220 Descending Miami Center
11:41AM 27.5947 -79.9781 160° South 468 539 28,600 -2,280 Descending Miami Center
11:42AM 27.4722 -79.9350 163° South 461 531 26,500 -2,100 Descending Miami Center
11:43AM 27.3522 -79.8919 162° South 455 524 24,500 -1,260 Descending Miami Center
11:44AM 27.2464 -79.8542 162° South 455 524 24,000 -1,080 Descending Miami Center
11:45AM 27.1322 -79.8161 163° South 439 505 22,400 -2,160 Descending Miami Center
11:46AM 27.0058 -79.7733 163° South 432 497 19,700 -2,460 Descending Miami Center
11:47AM 26.8939 -79.7308 161° South 432 497 17,500 -2,220 Descending Miami Center
11:48AM 26.7942 -79.7006 165° South 427 491 15,300 -2,400 Descending Miami Center
11:49AM 26.6728 -79.7208 188° South 398 458 12,800 -2,400 Descending Miami Center
11:50AM 26.5861 -79.7628 203° Southwest 390 449 10,600 -2,400 Descending Miami Center
11:51AM 26.4831 -79.8114 203° Southwest 371 427 8,100 -1,320 Descending Miami Center
11:52AM 26.4156 -79.8422 202° Southwest 323 372 8,000 -120 Descending Miami Center
11:53AM 26.3944 -79.8533 205° Southwest 267 307 8,000  Level Miami Center
11:53AM 26.3475 -79.8939 218° Southwest 277 319 8,000  Level Miami Center
11:54AM 26.3306 -79.9097 220° Southwest 273 314 8,000  Level Miami Center
11:54AM 26.2922 -79.9458 220° Southwest 277 319 8,000 -240 Level Miami Center
11:55AM 26.2708 -79.9661 220° Southwest 280 322 7,800 -1,140 Descending Miami Center
11:55AM 26.2367 -79.9997 221° Southwest 277 319 6,900 -1,320 Descending Miami Center
11:56AM 26.2133 -80.0178 215° Southwest 264 304 6,500 -1,020 Descending Miami Center
11:56AM 26.1833 -80.0539 227° Southwest 270 311 5,900 -540 Descending Miami Center
11:57AM 26.1681 -80.0883 244° Southwest 274 315 6,000  Climbing Miami Center
11:57AM 26.1586 -80.1319 256° West 258 297 5,900  Descending Miami Center
11:58AM 26.1475 -80.1642 249° West 269 310 6,000 -120 Climbing Miami Center
11:58AM 26.1483 -80.2103 271° West 258 297 5,800 -540 Descending Miami Center
11:59AM 26.1250 -80.2353 224° Southwest 244 281 5,400 -1,440 Descending Miami Center
11:59AM 26.0994 -80.2531 212° Southwest 241 277 4,400 -1,380 Descending Miami Center
12:00PM 26.0675 -80.2753 212° Southwest 203 234 4,000 -540 Descending Miami Center
12:00PM 26.0528 -80.2864 214° Southwest 215 247 3,900 -900 Descending Miami Center
12:01PM 26.0186 -80.3131 215° Southwest 214 246 3,000 -1,380 Descending Miami Center
12:02PM 25.9722 -80.3394 207° Southwest 199 229 1,900 -1,020 Descending Miami Center
12:03PM 25.9261 -80.3428 184° South 151 174 1,100 -780 Descending Miami Center
12:04PM 25.9103 -80.3008 113° Southeast 135 155 300 -720 Descending Miami Center
12:06PM 25.9074 -80.2782 114° Southeast  Level Estimated